Time;durP1;ratioP1;P1;durP2;ratioP2;P2;SDS_P1;SDS_P2;PMS_P1;PMS_P2;Temp;Humidity;BMP_temperature;BMP_pressure;BME280_temperature;BME280_humidity;BME280_pressure;Samples;Min_cycle;Max_cycle;Signal;HPM_P1;HPM_P2
2022/04/09 00:01:22;;;;;;;5.70;2.40;;;5.50;99.90;;;;;;5010897;28;20497;-80
2022/04/09 00:03:49;;;;;;;7.33;1.80;;;5.40;99.90;;;;;;4994349;28;20456;-79
2022/04/09 00:06:15;;;;;;;13.63;2.93;;;5.40;99.90;;;;;;5013541;28;20455;-79
2022/04/09 00:08:42;;;;;;;7.57;2.00;;;5.30;99.90;;;;;;5015309;28;20456;-79
2022/04/09 00:11:09;;;;;;;9.43;2.10;;;5.30;99.90;;;;;;5012922;28;20858;-78
2022/04/09 00:13:38;;;;;;;8.17;2.57;;;5.40;99.90;;;;;;5004467;28;20812;-79
2022/04/09 00:16:05;;;;;;;5.60;1.50;;;5.30;99.90;;;;;;5010266;28;21155;-79
2022/04/09 00:18:32;;;;;;;5.50;2.30;;;5.30;99.90;;;;;;5015267;28;20454;-79
2022/04/09 00:20:59;;;;;;;5.33;1.90;;;5.30;99.90;;;;;;5013446;28;20491;-79
2022/04/09 00:23:25;;;;;;;8.43;2.13;;;5.20;99.90;;;;;;5005642;28;20463;-79
2022/04/09 00:25:52;;;;;;;7.67;2.57;;;5.20;99.90;;;;;;4995888;28;20488;-80
2022/04/09 00:28:19;;;;;;;10.23;2.67;;;5.20;99.90;;;;;;5001047;28;20473;-79
2022/04/09 00:30:47;;;;;;;5.63;1.90;;;5.20;99.90;;;;;;5001227;28;20482;-80
2022/04/09 00:33:14;;;;;;;7.10;3.13;;;5.20;99.90;;;;;;5007201;28;20461;-78
2022/04/09 00:35:42;;;;;;;5.57;2.73;;;5.10;99.90;;;;;;4995561;28;20456;-79
2022/04/09 00:38:09;;;;;;;8.97;3.70;;;5.00;99.90;;;;;;4995887;28;20957;-80
2022/04/09 00:40:36;;;;;;;6.63;2.30;;;4.90;99.90;;;;;;5007554;28;20487;-80
2022/04/09 00:43:03;;;;;;;11.33;3.27;;;4.80;99.90;;;;;;4995058;28;20460;-79
2022/04/09 00:45:30;;;;;;;8.97;3.10;;;4.90;99.90;;;;;;4995171;28;20455;-80
2022/04/09 00:47:59;;;;;;;7.57;2.60;;;5.00;99.90;;;;;;5013027;28;20467;-80
2022/04/09 00:50:25;;;;;;;6.80;2.50;;;5.10;99.90;;;;;;5007463;28;20476;-79
2022/04/09 00:52:58;;;;;;;6.43;2.00;;;5.10;99.90;;;;;;5012772;28;20462;-79
2022/04/09 00:58:12;;;;;;;8.60;2.67;;;5.10;99.90;;;;;;5015546;28;20440;-79
2022/04/09 01:00:40;;;;;;;11.20;2.83;;;4.90;99.90;;;;;;5010841;28;20491;-80
2022/04/09 01:03:10;;;;;;;6.70;3.23;;;5.00;99.90;;;;;;5017424;28;20974;-79
2022/04/09 01:05:38;;;;;;;11.00;3.17;;;5.00;99.90;;;;;;5013856;28;20457;-79
2022/04/09 01:08:05;;;;;;;10.23;2.90;;;5.00;99.90;;;;;;4999073;28;20460;-80
2022/04/09 01:10:32;;;;;;;7.53;2.43;;;5.00;99.90;;;;;;4998386;28;20479;-78
2022/04/09 01:13:00;;;;;;;12.37;3.00;;;5.00;99.90;;;;;;4997947;28;20514;-78
2022/04/09 01:15:27;;;;;;;7.10;2.93;;;4.90;99.90;;;;;;5005775;28;20493;-79
2022/04/09 01:17:54;;;;;;;7.57;3.10;;;4.80;99.90;;;;;;5016942;28;20456;-80
2022/04/09 01:20:26;;;;;;;7.20;3.00;;;4.70;99.90;;;;;;5015601;28;20486;-80
2022/04/09 01:22:54;;;;;;;11.40;3.23;;;4.70;99.90;;;;;;5017880;28;20499;-79
2022/04/09 01:25:21;;;;;;;7.47;3.17;;;4.80;99.90;;;;;;5012122;28;20482;-80
2022/04/09 01:27:49;;;;;;;8.43;3.83;;;4.80;99.90;;;;;;5017198;28;20459;-80
2022/04/09 01:30:17;;;;;;;8.43;2.70;;;4.90;99.90;;;;;;5014649;28;20485;-80
2022/04/09 01:32:44;;;;;;;10.63;5.60;;;4.90;99.90;;;;;;5004721;28;20450;-80
2022/04/09 01:35:11;;;;;;;11.37;3.57;;;4.80;99.90;;;;;;4999200;28;20459;-80
2022/04/09 01:37:38;;;;;;;11.30;2.87;;;4.90;99.90;;;;;;5009541;28;20458;-80
2022/04/09 01:40:07;;;;;;;12.10;3.83;;;5.00;99.90;;;;;;5002950;28;20478;-80
2022/04/09 01:42:36;;;;;;;10.80;3.50;;;5.00;99.90;;;;;;5001847;28;20556;-79
2022/04/09 01:45:03;;;;;;;6.40;3.20;;;5.10;99.90;;;;;;5000839;28;20459;-79
2022/04/09 01:47:30;;;;;;;10.87;3.53;;;5.20;99.90;;;;;;5008625;28;20455;-79
2022/04/09 01:49:57;;;;;;;11.87;4.23;;;5.20;99.90;;;;;;4999413;28;20480;-79
2022/04/09 01:52:23;;;;;;;6.73;3.30;;;5.20;99.90;;;;;;5016302;28;20455;-79
2022/04/09 01:54:50;;;;;;;9.43;3.20;;;5.10;99.90;;;;;;5015794;28;20461;-79
2022/04/09 01:57:18;;;;;;;23.43;4.57;;;5.10;99.90;;;;;;4997855;28;21048;-80
2022/04/09 01:59:46;;;;;;;9.83;3.90;;;5.10;99.90;;;;;;4998837;28;20474;-79
2022/04/09 02:02:13;;;;;;;16.43;4.03;;;5.10;99.90;;;;;;5015603;28;20493;-80
2022/04/09 02:04:39;;;;;;;7.50;3.07;;;5.30;99.90;;;;;;5013103;28;20487;-78
2022/04/09 02:07:06;;;;;;;15.83;5.80;;;5.30;99.90;;;;;;4996807;28;20458;-77
2022/04/09 02:09:33;;;;;;;13.47;3.13;;;5.40;99.90;;;;;;4995443;28;20485;-79
2022/04/09 02:12:00;;;;;;;7.37;2.63;;;5.50;99.90;;;;;;4997247;28;20459;-80
2022/04/09 02:14:28;;;;;;;13.53;3.07;;;5.50;99.90;;;;;;4996426;28;20465;-79
2022/04/09 02:16:55;;;;;;;10.87;3.20;;;5.50;99.90;;;;;;5016277;28;20470;-79
2022/04/09 02:19:22;;;;;;;9.13;2.93;;;5.50;99.90;;;;;;5011356;28;20471;-79
2022/04/09 02:21:49;;;;;;;11.43;3.40;;;5.40;99.90;;;;;;5016210;28;20488;-79
2022/04/09 02:24:16;;;;;;;13.13;3.37;;;5.20;99.90;;;;;;5011950;28;20542;-79
2022/04/09 02:26:42;;;;;;;13.63;2.93;;;5.10;99.90;;;;;;4996312;28;20456;-79
2022/04/09 02:29:10;;;;;;;13.77;3.60;;;5.00;99.90;;;;;;4998422;28;21013;-80
2022/04/09 02:31:38;;;;;;;6.23;2.83;;;5.10;99.90;;;;;;4998919;28;20476;-79
2022/04/09 02:34:05;;;;;;;11.53;3.97;;;5.20;99.90;;;;;;5004009;28;20844;-80
2022/04/09 02:36:33;;;;;;;10.00;3.10;;;5.30;99.90;;;;;;5001315;28;20459;-79
2022/04/09 02:38:59;;;;;;;14.10;3.90;;;5.40;99.90;;;;;;5003027;28;20970;-80
2022/04/09 02:41:28;;;;;;;13.57;3.93;;;5.40;99.90;;;;;;5000401;28;20487;-80
2022/04/09 02:43:55;;;;;;;11.20;3.23;;;5.40;99.90;;;;;;4996679;28;20462;-79
2022/04/09 02:46:22;;;;;;;6.20;2.17;;;5.40;99.90;;;;;;5009105;28;20464;-79
2022/04/09 02:48:50;;;;;;;10.83;2.80;;;5.50;99.90;;;;;;4998695;28;20460;-79
2022/04/09 02:51:17;;;;;;;16.97;3.67;;;5.50;99.90;;;;;;5008285;28;20456;-80
2022/04/09 02:53:43;;;;;;;12.93;3.23;;;5.60;99.90;;;;;;4999038;28;20535;-80
2022/04/09 02:56:10;;;;;;;11.90;3.40;;;5.60;99.90;;;;;;4996754;28;20816;-80
2022/04/09 02:58:37;;;;;;;10.73;3.40;;;5.60;99.90;;;;;;5012274;28;20462;-80
2022/04/09 03:01:04;;;;;;;7.40;2.80;;;5.60;99.90;;;;;;5009668;28;20489;-79
2022/04/09 03:03:31;;;;;;;7.90;2.57;;;5.70;99.90;;;;;;5016081;28;20538;-80
2022/04/09 03:05:59;;;;;;;10.63;3.47;;;5.70;99.90;;;;;;5011297;28;20459;-79
2022/04/09 03:08:25;;;;;;;14.43;3.60;;;5.60;99.90;;;;;;4996296;28;20550;-78
2022/04/09 03:10:53;;;;;;;9.57;3.43;;;5.60;99.90;;;;;;5002228;28;20651;-80
2022/04/09 03:13:20;;;;;;;10.40;3.30;;;5.70;99.90;;;;;;4995790;28;20507;-80
2022/04/09 03:15:47;;;;;;;18.97;3.73;;;5.80;99.90;;;;;;4998495;28;20966;-79
2022/04/09 03:18:13;;;;;;;9.13;3.27;;;5.70;99.90;;;;;;4997537;28;20463;-78
2022/04/09 03:20:40;;;;;;;13.53;3.77;;;5.70;99.90;;;;;;5002637;28;20481;-79
2022/04/09 03:23:08;;;;;;;12.13;3.50;;;5.60;99.90;;;;;;4996130;28;20457;-79
2022/04/09 03:25:35;;;;;;;13.33;4.33;;;5.60;99.90;;;;;;4997159;28;20461;-80
2022/04/09 03:28:02;;;;;;;16.13;2.83;;;5.50;99.90;;;;;;5005500;28;20982;-80
2022/04/09 03:30:29;;;;;;;7.80;3.10;;;5.40;99.90;;;;;;5009992;28;20848;-79
2022/04/09 03:32:56;;;;;;;12.70;3.60;;;5.40;99.90;;;;;;4997569;28;20458;-80
2022/04/09 03:35:23;;;;;;;13.33;3.40;;;5.30;99.90;;;;;;4996518;28;20462;-80
2022/04/09 03:37:50;;;;;;;11.27;2.90;;;5.30;99.90;;;;;;5009837;28;20461;-80
2022/04/09 03:40:18;;;;;;;9.27;3.57;;;5.30;99.90;;;;;;5001946;28;20471;-79
2022/04/09 03:42:45;;;;;;;11.63;2.90;;;5.40;99.90;;;;;;5002262;28;20488;-80
2022/04/09 03:45:12;;;;;;;14.13;4.77;;;5.30;99.90;;;;;;5006141;28;20926;-80
2022/04/09 03:47:38;;;;;;;25.77;4.73;;;5.20;99.90;;;;;;5016774;28;20545;-80
2022/04/09 03:50:06;;;;;;;12.23;3.03;;;5.20;99.90;;;;;;5009691;28;20485;-79
2022/04/09 03:52:33;;;;;;;10.87;2.83;;;5.10;99.90;;;;;;5017003;28;20465;-78
2022/04/09 03:55:00;;;;;;;8.40;2.70;;;5.00;99.90;;;;;;5010326;28;20450;-80
2022/04/09 03:57:28;;;;;;;10.00;3.30;;;4.90;99.90;;;;;;4997894;28;20467;-80
2022/04/09 03:59:57;;;;;;;9.73;2.50;;;5.00;99.90;;;;;;5001217;28;20497;-79
2022/04/09 04:02:24;;;;;;;7.73;2.60;;;5.10;99.90;;;;;;5002235;28;20487;-79
2022/04/09 04:04:50;;;;;;;10.20;4.67;;;5.10;99.90;;;;;;5015052;28;20451;-79
2022/04/09 04:07:22;;;;;;;10.17;3.20;;;4.90;99.90;;;;;;5015525;28;20541;-80
2022/04/09 04:09:49;;;;;;;13.13;3.17;;;4.90;99.90;;;;;;5015141;28;20529;-80
2022/04/09 04:12:16;;;;;;;12.27;4.40;;;4.70;99.90;;;;;;5011876;28;20789;-80
2022/04/09 04:14:44;;;;;;;13.13;3.57;;;4.70;99.90;;;;;;4995681;28;20831;-79
2022/04/09 04:17:11;;;;;;;11.00;3.50;;;4.70;99.90;;;;;;4998659;28;20796;-80
2022/04/09 04:19:39;;;;;;;10.03;2.60;;;4.70;99.90;;;;;;5016416;28;20473;-79
2022/04/09 04:22:07;;;;;;;11.43;4.17;;;4.70;99.90;;;;;;5010526;28;20483;-79
2022/04/09 04:24:37;;;;;;;9.47;2.70;;;4.70;99.90;;;;;;5016176;28;20480;-80
2022/04/09 04:27:05;;;;;;;8.13;3.13;;;4.60;99.90;;;;;;5004314;28;20494;-80
2022/04/09 04:29:31;;;;;;;36.10;4.90;;;4.50;99.90;;;;;;5002761;28;20490;-79
2022/04/09 04:32:00;;;;;;;14.20;3.80;;;4.50;99.90;;;;;;5010042;28;20967;-78
2022/04/09 04:34:27;;;;;;;6.17;2.53;;;4.50;99.90;;;;;;5011857;28;20454;-78
2022/04/09 04:36:54;;;;;;;11.40;2.90;;;4.40;99.90;;;;;;5011049;28;20458;-78
2022/04/09 04:39:20;;;;;;;11.53;3.20;;;4.40;99.90;;;;;;5014392;28;20517;-78
2022/04/09 04:41:47;;;;;;;8.03;2.90;;;4.30;99.90;;;;;;5013225;28;20477;-78
2022/04/09 04:44:14;;;;;;;8.10;3.00;;;4.20;99.90;;;;;;5014112;28;20492;-78
2022/04/09 04:46:41;;;;;;;11.47;3.33;;;4.20;99.90;;;;;;4998286;28;20458;-78
2022/04/09 04:49:10;;;;;;;15.33;3.60;;;4.20;99.90;;;;;;5000177;28;20849;-78
2022/04/09 04:51:36;;;;;;;12.10;2.90;;;4.30;99.90;;;;;;5004082;28;20454;-78
2022/04/09 04:54:03;;;;;;;7.37;2.80;;;4.20;99.90;;;;;;5005479;28;20449;-78
2022/04/09 04:56:30;;;;;;;12.03;3.60;;;4.20;99.90;;;;;;5015789;28;20457;-78
2022/04/09 04:58:57;;;;;;;10.20;3.57;;;4.10;99.90;;;;;;5007212;28;20462;-78
2022/04/09 05:01:24;;;;;;;11.47;3.27;;;4.10;99.90;;;;;;5010163;28;20488;-78
2022/04/09 05:03:53;;;;;;;9.00;2.80;;;4.20;99.90;;;;;;4998260;28;20460;-78
2022/04/09 05:06:21;;;;;;;12.90;3.27;;;4.30;99.90;;;;;;4999361;28;20455;-78
2022/04/09 05:08:48;;;;;;;6.47;3.00;;;4.30;99.90;;;;;;5003458;28;20450;-78
2022/04/09 05:11:14;;;;;;;8.70;2.60;;;4.40;99.90;;;;;;5010772;28;20458;-78
2022/04/09 05:13:41;;;;;;;10.27;3.50;;;4.50;99.90;;;;;;5016637;28;20455;-78
2022/04/09 05:16:08;;;;;;;13.10;2.67;;;4.50;99.90;;;;;;5011912;28;20808;-77
2022/04/09 05:18:35;;;;;;;13.00;2.67;;;4.50;99.90;;;;;;5007678;28;20460;-77
2022/04/09 05:21:02;;;;;;;14.77;3.97;;;4.50;99.90;;;;;;5019137;28;20542;-78
2022/04/09 05:23:30;;;;;;;11.03;3.07;;;4.60;99.90;;;;;;5019303;28;20493;-78
2022/04/09 05:25:57;;;;;;;9.10;2.77;;;4.60;99.90;;;;;;5017793;28;20446;-78
2022/04/09 05:28:24;;;;;;;12.50;2.97;;;4.60;99.90;;;;;;5019353;28;20456;-79
2022/04/09 05:30:51;;;;;;;6.23;2.97;;;4.60;99.90;;;;;;5011616;28;20483;-78
2022/04/09 05:33:18;;;;;;;14.60;3.40;;;4.60;99.90;;;;;;4998838;28;21012;-77
2022/04/09 05:35:45;;;;;;;91.37;31.87;;;4.80;99.90;;;;;;5000105;28;20461;-78
2022/04/09 05:38:12;;;;;;;17.07;4.97;;;4.90;99.90;;;;;;5000542;28;20464;-78
2022/04/09 05:40:40;;;;;;;8.23;3.10;;;5.10;99.90;;;;;;4999866;28;21011;-78
2022/04/09 05:43:07;;;;;;;17.53;4.77;;;5.10;99.90;;;;;;4998329;28;20494;-78
2022/04/09 05:45:34;;;;;;;11.77;4.13;;;5.10;99.90;;;;;;5000424;28;20467;-79
2022/04/09 05:48:02;;;;;;;10.40;3.40;;;5.20;99.90;;;;;;5000630;28;20458;-78
2022/04/09 05:50:28;;;;;;;17.00;3.97;;;5.20;99.90;;;;;;5001886;28;20490;-80
2022/04/09 05:52:55;;;;;;;14.80;4.33;;;5.20;99.90;;;;;;5018430;28;20442;-80
2022/04/09 05:55:22;;;;;;;8.90;4.10;;;5.20;99.90;;;;;;5018387;28;20452;-79
2022/04/09 05:57:50;;;;;;;15.53;4.57;;;5.20;99.90;;;;;;5007446;28;20845;-80
2022/04/09 06:00:19;;;;;;;9.27;4.03;;;5.10;99.90;;;;;;4999002;28;20853;-80
2022/04/09 06:02:45;;;;;;;12.60;3.57;;;5.30;99.90;;;;;;5015374;28;20487;-78
2022/04/09 06:05:12;;;;;;;14.20;3.80;;;5.50;99.90;;;;;;5020467;28;20455;-80
2022/04/09 06:07:39;;;;;;;11.37;3.80;;;5.70;99.90;;;;;;5017047;28;20442;-79
2022/04/09 06:10:12;;;;;;;20.07;4.30;;;5.70;99.90;;;;;;4997769;28;20508;-79
2022/04/09 06:12:39;;;;;;;10.30;3.70;;;5.80;99.90;;;;;;4999560;28;20534;-80
2022/04/09 06:15:08;;;;;;;15.37;3.13;;;5.80;99.90;;;;;;4997674;28;20462;-80
2022/04/09 06:17:36;;;;;;;13.87;3.83;;;5.80;99.90;;;;;;4998144;28;20455;-79
2022/04/09 06:20:04;;;;;;;12.73;3.20;;;5.80;99.90;;;;;;5014114;28;20480;-79
2022/04/09 06:22:32;;;;;;;7.03;2.73;;;5.80;99.90;;;;;;5003399;28;21032;-79
2022/04/09 06:24:59;;;;;;;12.23;3.03;;;6.00;99.90;;;;;;5000130;28;20866;-80
2022/04/09 06:27:26;;;;;;;9.23;2.60;;;5.80;99.90;;;;;;4996940;28;20454;-79
2022/04/09 06:29:53;;;;;;;10.97;3.70;;;6.00;99.90;;;;;;5007847;28;21031;-79
2022/04/09 06:32:23;;;;;;;13.57;3.03;;;5.90;99.90;;;;;;5013344;28;20449;-78
2022/04/09 06:34:50;;;;;;;8.50;2.60;;;5.90;99.90;;;;;;5007051;28;20821;-79
2022/04/09 06:37:17;;;;;;;10.07;2.47;;;5.80;99.90;;;;;;5001691;28;20453;-79
2022/04/09 06:39:46;;;;;;;10.93;2.70;;;5.60;99.90;;;;;;4997267;28;20563;-79
2022/04/09 06:42:15;;;;;;;15.33;4.53;;;5.50;99.90;;;;;;5010937;28;20489;-77
2022/04/09 06:44:42;;;;;;;11.23;2.90;;;5.40;99.90;;;;;;5001367;28;20462;-79
2022/04/09 06:47:09;;;;;;;17.87;2.87;;;5.40;99.90;;;;;;4996735;28;20508;-79
2022/04/09 06:49:39;;;;;;;9.57;3.60;;;5.50;99.90;;;;;;4996658;28;20479;-79
2022/04/09 06:52:08;;;;;;;8.10;3.13;;;5.50;99.90;;;;;;5008831;28;20458;-78
2022/04/09 06:54:34;;;;;;;8.07;2.80;;;5.60;99.90;;;;;;4995457;28;20454;-79
2022/04/09 06:57:04;;;;;;;15.40;2.80;;;5.70;99.90;;;;;;5000253;28;20464;-79
2022/04/09 06:59:31;;;;;;;11.20;2.90;;;5.80;99.90;;;;;;4996064;28;21009;-78
2022/04/09 07:01:58;;;;;;;10.53;3.00;;;5.90;99.90;;;;;;4997182;28;20456;-80
2022/04/09 07:04:25;;;;;;;8.47;2.70;;;6.00;99.90;;;;;;5014321;28;20835;-78
2022/04/09 07:06:53;;;;;;;15.43;3.37;;;6.20;99.90;;;;;;5011879;28;20456;-79
2022/04/09 07:09:19;;;;;;;5.93;2.27;;;6.40;99.90;;;;;;5013117;28;20495;-80
2022/04/09 07:11:46;;;;;;;14.63;3.27;;;6.60;99.90;;;;;;5001592;28;20452;-81
2022/04/09 07:14:13;;;;;;;13.93;3.27;;;6.90;99.90;;;;;;5005321;28;20533;-79
2022/04/09 07:16:40;;;;;;;11.97;3.10;;;7.00;99.90;;;;;;5011853;28;20522;-80
2022/04/09 07:19:08;;;;;;;13.13;3.20;;;7.20;99.90;;;;;;5006844;28;20973;-79
2022/04/09 07:21:35;;;;;;;10.23;3.20;;;7.10;99.90;;;;;;5004815;28;20459;-80
2022/04/09 07:24:04;;;;;;;8.70;2.57;;;7.30;99.90;;;;;;4996310;28;20487;-79
2022/04/09 07:26:31;;;;;;;11.23;3.17;;;7.70;99.90;;;;;;4996253;28;20553;-80
2022/04/09 07:28:57;;;;;;;8.77;3.23;;;8.10;99.90;;;;;;5006490;28;20457;-80
2022/04/09 07:31:24;;;;;;;5.33;2.30;;;8.10;99.90;;;;;;5001925;28;20459;-80
2022/04/09 07:33:51;;;;;;;13.47;4.23;;;8.30;99.90;;;;;;5014934;28;20445;-80
2022/04/09 07:36:18;;;;;;;6.67;2.07;;;8.40;99.90;;;;;;5015942;28;20464;-80
2022/04/09 07:38:45;;;;;;;8.90;2.20;;;8.30;99.90;;;;;;5014574;28;20454;-80
2022/04/09 07:41:13;;;;;;;9.07;2.37;;;8.10;99.90;;;;;;5009574;28;20846;-80
2022/04/09 07:43:40;;;;;;;9.63;2.10;;;8.40;99.90;;;;;;5008562;28;20485;-80
2022/04/09 07:46:06;;;;;;;5.90;2.30;;;8.30;99.90;;;;;;5015888;28;20834;-81
2022/04/09 07:48:34;;;;;;;7.30;2.20;;;8.20;99.90;;;;;;5003512;28;20485;-79
2022/04/09 07:51:01;;;;;;;7.97;2.20;;;8.20;99.90;;;;;;4999850;28;21029;-79
2022/04/09 07:53:27;;;;;;;8.67;2.27;;;8.30;99.90;;;;;;5014331;28;20472;-79
2022/04/09 07:55:54;;;;;;;10.73;2.90;;;8.40;99.90;;;;;;4995150;28;21007;-79
2022/04/09 07:58:22;;;;;;;13.07;2.50;;;8.50;99.90;;;;;;4996341;28;20497;-80
2022/04/09 08:00:50;;;;;;;7.90;2.07;;;8.70;99.90;;;;;;5006381;28;20484;-80
2022/04/09 08:03:16;;;;;;;8.50;2.93;;;9.10;99.90;;;;;;5015281;28;20489;-81
2022/04/09 08:05:43;;;;;;;7.53;2.20;;;9.70;99.90;;;;;;4997995;28;20959;-80
2022/04/09 08:08:10;;;;;;;18.57;3.63;;;9.20;99.90;;;;;;5007090;28;20468;-80
2022/04/09 08:10:39;;;;;;;12.23;3.57;;;8.60;99.90;;;;;;5002862;28;20481;-80
2022/04/09 08:13:06;;;;;;;10.43;3.43;;;8.20;99.90;;;;;;5015382;28;20450;-77
2022/04/09 08:15:34;;;;;;;7.10;2.37;;;8.10;99.90;;;;;;5018030;28;20456;-78
2022/04/09 08:18:04;;;;;;;6.73;2.10;;;8.20;99.90;;;;;;5005194;28;20786;-78
2022/04/09 08:20:31;;;;;;;8.03;2.47;;;8.60;99.90;;;;;;5006018;28;20481;-78
2022/04/09 08:22:59;;;;;;;14.50;3.27;;;9.40;99.90;;;;;;5001653;28;21097;-78
2022/04/09 08:25:26;;;;;;;12.03;2.90;;;10.10;99.90;;;;;;5014566;28;20970;-78
2022/04/09 08:27:53;;;;;;;5.73;2.00;;;10.60;99.90;;;;;;4999142;28;20456;-78
2022/04/09 08:30:21;;;;;;;9.90;2.70;;;11.00;99.90;;;;;;5005421;28;20566;-77
2022/04/09 08:32:51;;;;;;;14.40;2.90;;;11.00;99.90;;;;;;4995832;28;20963;-78
2022/04/09 08:35:18;;;;;;;11.83;3.50;;;11.10;99.90;;;;;;5007127;28;20486;-77
2022/04/09 08:37:52;;;;;;;9.60;3.60;;;11.00;99.90;;;;;;5018890;28;20741;-77
2022/04/09 08:40:21;;;;;;;9.60;3.30;;;11.00;99.90;;;;;;5008766;28;20481;-77
2022/04/09 08:42:48;;;;;;;7.30;3.30;;;9.90;99.90;;;;;;4999794;28;20554;-78
2022/04/09 08:45:15;;;;;;;9.60;3.80;;;9.30;99.90;;;;;;5007049;28;20877;-77
2022/04/09 08:47:43;;;;;;;11.10;4.90;;;8.70;99.90;;;;;;5020105;28;20451;-78
2022/04/09 08:50:13;;;;;;;9.13;3.33;;;9.00;99.90;;;;;;5011561;28;20478;-78
2022/04/09 08:52:41;;;;;;;11.83;3.87;;;10.10;99.90;;;;;;4995865;28;20452;-79
2022/04/09 08:55:11;;;;;;;8.83;3.63;;;10.10;99.90;;;;;;5000800;28;20460;-78
2022/04/09 08:57:38;;;;;;;8.90;3.37;;;10.10;99.90;;;;;;5014430;28;20881;-78
2022/04/09 09:00:07;;;;;;;7.40;2.80;;;11.60;99.90;;;;;;5005148;28;20509;-78
2022/04/09 09:02:36;;;;;;;8.40;3.00;;;13.30;99.90;;;;;;5017245;28;20452;-78
2022/04/09 09:05:04;;;;;;;13.60;3.57;;;14.70;99.90;;;;;;5006486;28;20549;-78
2022/04/09 09:07:32;;;;;;;7.73;2.67;;;15.90;99.90;;;;;;5001397;28;20541;-78
2022/04/09 09:10:15;;;;;;;7.97;3.13;;;16.70;99.90;;;;;;5003496;28;20471;-80
2022/04/09 09:12:42;;;;;;;5.77;2.63;;;17.90;99.90;;;;;;5012413;28;20459;-79
2022/04/09 09:15:12;;;;;;;5.93;2.30;;;18.50;99.90;;;;;;5011374;28;20463;-79
2022/04/09 09:17:39;;;;;;;6.20;2.37;;;19.40;99.90;;;;;;5010045;28;20455;-78
2022/04/09 09:20:13;;;;;;;8.33;2.50;;;18.70;99.90;;;;;;5015135;28;21090;-81
2022/04/09 09:22:43;;;;;;;6.60;2.20;;;18.20;99.90;;;;;;5019521;28;20453;-79
2022/04/09 09:25:11;;;;;;;8.67;2.80;;;16.50;99.90;;;;;;5018738;28;20483;-80
2022/04/09 09:27:44;;;;;;;9.30;1.90;;;15.40;99.90;;;;;;5005935;28;20475;-80
2022/04/09 09:30:14;;;;;;;4.73;1.77;;;14.40;99.90;;;;;;5009557;28;20520;-79
2022/04/09 09:32:42;;;;;;;5.13;2.00;;;15.50;99.90;;;;;;5008751;28;20466;-79
2022/04/09 09:35:12;;;;;;;6.47;2.37;;;15.40;99.90;;;;;;4993263;28;20478;-78
2022/04/09 09:37:38;;;;;;;8.60;1.57;;;13.90;99.90;;;;;;5007434;28;20457;-77
2022/04/09 09:40:08;;;;;;;4.30;1.43;;;13.00;99.90;;;;;;5009233;28;20504;-77
2022/04/09 09:42:35;;;;;;;3.00;1.10;;;13.20;99.90;;;;;;5013848;28;20893;-77
2022/04/09 09:45:02;;;;;;;11.50;1.57;;;14.70;99.90;;;;;;5020632;28;20458;-77
2022/04/09 09:47:29;;;;;;;4.90;0.93;;;13.60;99.90;;;;;;5017717;28;20814;-78
2022/04/09 09:49:57;;;;;;;3.93;1.10;;;12.60;99.90;;;;;;5014706;28;20472;-78
2022/04/09 09:52:26;;;;;;;4.43;1.00;;;11.60;99.90;;;;;;5011906;28;20449;-77
2022/04/09 09:55:00;;;;;;;6.50;1.17;;;10.60;99.90;;;;;;5013020;28;20443;-76
2022/04/09 09:57:30;;;;;;;4.23;1.70;;;9.80;99.90;;;;;;5015055;28;20501;-77
2022/04/09 09:59:59;;;;;;;5.80;3.60;;;8.80;99.90;;;;;;5010160;28;20905;-77
2022/04/09 10:02:26;;;;;;;5.10;1.80;;;8.40;99.90;;;;;;5003422;28;20453;-79
2022/04/09 10:04:54;;;;;;;1.93;0.83;;;8.40;99.90;;;;;;5012181;28;20493;-78
2022/04/09 10:07:22;;;;;;;3.33;1.23;;;9.00;99.90;;;;;;4996671;28;20633;-79
2022/04/09 10:09:49;;;;;;;2.90;1.00;;;11.60;99.90;;;;;;4998339;28;21003;-78
2022/04/09 10:12:19;;;;;;;3.07;1.30;;;14.80;99.90;;;;;;5001986;28;20461;-79
2022/04/09 10:14:51;;;;;;;2.33;0.90;;;17.30;99.90;;;;;;5008229;28;20453;-79
2022/04/09 10:17:19;;;;;;;2.70;0.80;;;19.00;99.90;;;;;;4998262;28;20441;-79
2022/04/09 10:19:54;;;;;;;4.00;1.13;;;18.70;99.90;;;;;;5003480;28;20830;-79
2022/04/09 10:22:23;;;;;;;2.80;1.00;;;21.20;99.90;;;;;;5018693;28;20457;-79
2022/04/09 10:24:51;;;;;;;3.13;1.10;;;22.40;95.80;;;;;;5008724;28;20492;-78
2022/04/09 10:27:35;;;;;;;3.60;1.10;;;23.20;90.30;;;;;;5018623;28;20449;-81
2022/04/09 10:30:17;;;;;;;4.70;1.63;;;23.00;78.30;;;;;;5002151;28;20920;-80
2022/04/09 10:32:46;;;;;;;4.63;1.40;;;22.50;80.40;;;;;;4998152;28;20441;-79
2022/04/09 10:35:28;;;;;;;3.57;1.40;;;21.30;74.60;;;;;;4996018;28;20481;-78
2022/04/09 10:38:17;;;;;;;4.30;1.50;;;20.70;73.60;;;;;;4997905;28;20463;-80
2022/04/09 10:41:27;;;;;;;5.47;2.03;;;18.70;73.80;;;;;;5006561;28;20476;-78
2022/04/09 10:43:57;;;;;;;6.00;2.00;;;19.40;83.00;;;;;;5016689;28;20506;-79
2022/04/09 10:46:35;;;;;;;5.07;1.70;;;20.10;74.00;;;;;;5008946;28;20461;-79
2022/04/09 10:49:22;;;;;;;3.87;1.17;;;21.10;71.60;;;;;;4998424;28;20440;-78
2022/04/09 10:52:06;;;;;;;7.10;1.80;;;21.50;71.30;;;;;;5000207;28;20543;-81
2022/04/09 10:54:34;;;;;;;4.03;1.40;;;22.40;69.20;;;;;;4996070;28;20504;-80
2022/04/09 10:57:08;;;;;;;5.73;1.43;;;20.60;66.60;;;;;;5000010;28;20461;-79
2022/04/09 10:59:37;;;;;;;5.30;1.40;;;18.90;72.40;;;;;;4997175;28;20866;-80
2022/04/09 11:02:05;;;;;;;4.90;1.53;;;19.90;72.30;;;;;;5005773;28;20459;-79
2022/04/09 11:04:42;;;;;;;7.03;1.60;;;20.40;68.90;;;;;;4997065;28;21096;-79
2022/04/09 11:07:15;;;;;;;5.63;1.60;;;19.40;68.40;;;;;;5003096;28;20457;-77
2022/04/09 11:09:53;;;;;;;4.43;1.60;;;17.30;69.30;;;;;;4994781;28;20532;-77
2022/04/09 11:12:24;;;;;;;6.70;3.00;;;16.70;71.10;;;;;;4998428;28;20450;-79
2022/04/09 11:14:52;;;;;;;8.03;1.93;;;16.70;72.10;;;;;;5003837;28;20438;-80
2022/04/09 11:17:39;;;;;;;5.30;2.23;;;16.00;73.30;;;;;;5002472;28;20458;-79
2022/04/09 11:20:10;;;;;;;3.00;1.10;;;13.40;85.10;;;;;;5005284;28;20990;-79
2022/04/09 11:22:38;;;;;;;2.70;1.00;;;11.30;99.00;;;;;;5007475;28;20449;-79
2022/04/09 11:25:06;;;;;;;4.70;1.10;;;9.20;99.90;;;;;;5004519;28;20494;-79
2022/04/09 11:27:34;;;;;;;3.10;0.90;;;8.00;99.90;;;;;;5002300;28;20453;-80
2022/04/09 11:30:01;;;;;;;3.70;0.90;;;7.10;99.90;;;;;;5002210;28;20479;-79
2022/04/09 11:32:28;;;;;;;4.93;1.70;;;6.70;99.90;;;;;;5001483;28;20491;-79
2022/04/09 11:34:59;;;;;;;4.73;1.60;;;6.40;99.90;;;;;;5003591;28;20612;-79
2022/04/09 11:37:30;;;;;;;2.67;0.90;;;6.00;99.90;;;;;;5003062;28;20458;-78
2022/04/09 11:39:58;;;;;;;1.93;0.90;;;5.80;99.90;;;;;;5002035;28;20471;-80
2022/04/09 11:42:25;;;;;;;4.30;1.33;;;5.50;99.90;;;;;;5001953;28;20844;-78
2022/04/09 11:44:52;;;;;;;2.67;1.20;;;5.40;99.90;;;;;;5002637;28;20490;-79
2022/04/09 11:47:24;;;;;;;3.10;1.50;;;5.40;99.90;;;;;;5003770;28;20466;-79
2022/04/09 11:49:52;;;;;;;4.93;1.00;;;5.40;99.90;;;;;;5003765;28;20475;-78
2022/04/09 11:52:28;;;;;;;2.63;1.00;;;5.70;99.90;;;;;;5004319;28;21045;-79
2022/04/09 11:55:00;;;;;;;5.73;2.43;;;6.20;99.90;;;;;;5002027;28;20458;-79
2022/04/09 11:57:27;;;;;;;2.63;1.10;;;7.60;99.90;;;;;;5005549;28;20969;-79
2022/04/09 11:59:55;;;;;;;18.90;8.10;;;11.40;99.90;;;;;;5003170;28;20489;-80
2022/04/09 12:02:24;;;;;;;8.10;5.93;;;13.70;99.90;;;;;;5004344;28;20460;-79
2022/04/09 12:04:52;;;;;;;5.10;1.30;;;16.20;99.90;;;;;;5003314;28;20482;-79
2022/04/09 12:07:24;;;;;;;4.93;1.10;;;19.10;99.90;;;;;;5003089;28;20971;-80
2022/04/09 12:09:53;;;;;;;5.40;1.23;;;22.00;99.90;;;;;;5003360;28;20522;-79
2022/04/09 12:12:22;;;;;;;4.40;1.60;;;22.30;96.10;;;;;;5005692;28;20985;-80
2022/04/09 12:14:56;;;;;;;4.47;1.67;;;23.20;76.50;;;;;;5002610;28;20462;-80
2022/04/09 12:17:31;;;;;;;2.93;1.10;;;23.90;77.60;;;;;;5004687;28;20454;-78
2022/04/09 12:19:57;;;;;;;5.23;1.40;;;24.20;68.80;;;;;;5004051;28;20473;-79
2022/04/09 12:22:24;;;;;;;3.43;0.90;;;25.10;71.10;;;;;;5002022;28;20493;-79
2022/04/09 12:24:55;;;;;;;2.80;1.43;;;26.40;62.90;;;;;;5001177;28;20581;-79
2022/04/09 12:27:41;;;;;;;2.90;0.93;;;26.60;57.90;;;;;;5001932;28;20467;-78
2022/04/09 12:30:09;;;;;;;3.30;0.90;;;25.00;56.40;;;;;;5000329;28;20485;-78
2022/04/09 12:32:36;;;;;;;2.60;0.90;;;26.80;60.60;;;;;;5004762;28;20836;-79
2022/04/09 12:35:06;;;;;;;4.10;1.10;;;28.10;56.00;;;;;;5008253;28;20453;-77
2022/04/09 12:37:44;;;;;;;3.60;1.13;;;25.80;56.20;;;;;;5000050;28;20464;-78
2022/04/09 12:40:17;;;;;;;2.73;1.30;;;27.30;52.90;;;;;;4996497;28;20484;-79
2022/04/09 12:42:46;;;;;;;5.20;1.00;;;27.60;53.60;;;;;;4993547;28;20492;-79
2022/04/09 12:45:15;;;;;;;2.37;0.80;;;25.90;50.30;;;;;;5000238;28;20521;-78
2022/04/09 12:47:42;;;;;;;2.97;1.10;;;26.70;50.40;;;;;;4995707;28;20466;-78
2022/04/09 12:50:24;;;;;;;3.07;0.97;;;27.80;49.90;;;;;;5009497;28;20470;-79
2022/04/09 12:52:51;;;;;;;2.60;0.90;;;27.60;47.40;;;;;;5002945;28;20469;-80
2022/04/09 12:55:22;;;;;;;2.80;1.00;;;27.90;48.50;;;;;;5001199;28;20530;-82
2022/04/09 12:57:49;;;;;;;3.40;1.00;;;27.60;46.70;;;;;;5003116;28;20461;-78
2022/04/09 13:00:17;;;;;;;3.40;1.20;;;23.70;45.40;;;;;;5002679;28;20481;-80